Time;durP1;ratioP1;P1;durP2;ratioP2;P2;SDS_P1;SDS_P2;PMS_P1;PMS_P2;Temp;Humidity;BMP_temperature;BMP_pressure;BME280_temperature;BME280_humidity;BME280_pressure;Samples;Min_cycle;Max_cycle;Signal;HPM_P1;HPM_P2
2022/01/12 00:00:53;;;;;;;30.33;12.77;;;-2.50;99.90;;;;;;5017375;28;20013;-71
2022/01/12 00:03:18;;;;;;;27.77;11.20;;;-2.50;99.90;;;;;;5014125;28;20343;-72
2022/01/12 00:05:44;;;;;;;26.83;10.53;;;-2.50;99.90;;;;;;5018231;28;20026;-71
2022/01/12 00:08:12;;;;;;;26.77;11.17;;;-2.40;99.90;;;;;;5015770;28;20483;-71
2022/01/12 00:10:38;;;;;;;23.92;10.43;;;-2.40;99.90;;;;;;5013948;28;20116;-70
2022/01/12 00:13:05;;;;;;;27.90;10.88;;;-2.40;99.90;;;;;;5017404;28;20027;-71
2022/01/12 00:15:31;;;;;;;27.92;11.10;;;-2.50;99.90;;;;;;5011874;28;20033;-71
2022/01/12 00:17:59;;;;;;;27.85;12.27;;;-2.50;99.90;;;;;;5016811;28;20025;-72
2022/01/12 00:20:26;;;;;;;25.38;10.82;;;-2.50;99.90;;;;;;5012664;28;20034;-71
2022/01/12 00:22:54;;;;;;;28.33;11.32;;;-2.50;99.90;;;;;;5016250;28;20383;-71
2022/01/12 00:33:16;;;;;;;24.50;11.55;;;-2.60;99.90;;;;;;5011826;28;20103;-71
2022/01/12 00:35:48;;;;;;;25.00;12.30;;;-2.60;99.90;;;;;;5016267;28;20433;-71
2022/01/12 00:38:16;;;;;;;25.75;11.40;;;-2.60;99.90;;;;;;5014833;28;20022;-71
2022/01/12 00:40:49;;;;;;;27.65;11.77;;;-2.60;99.90;;;;;;5015800;28;20037;-71
2022/01/12 00:43:16;;;;;;;25.85;11.10;;;-2.60;99.90;;;;;;5012299;28;20795;-72
2022/01/12 00:45:45;;;;;;;29.38;11.25;;;-2.60;99.90;;;;;;5014194;28;20096;-71
2022/01/12 00:48:12;;;;;;;29.50;11.07;;;-2.60;99.90;;;;;;5017538;28;20056;-71
2022/01/12 00:50:38;;;;;;;30.50;11.95;;;-2.60;99.90;;;;;;5013215;28;20475;-71
2022/01/12 00:53:04;;;;;;;29.50;11.63;;;-2.60;99.90;;;;;;5016229;28;20041;-71
2022/01/12 00:55:31;;;;;;;29.53;11.47;;;-2.60;99.90;;;;;;5013375;28;20022;-71
2022/01/12 00:57:58;;;;;;;30.90;11.32;;;-2.70;99.90;;;;;;5015738;28;20061;-71
2022/01/12 01:00:25;;;;;;;;;;;-2.60;99.90;;;;;;5013831;28;20443;-71
2022/01/12 01:02:51;;;;;;;26.27;10.68;;;-2.60;99.90;;;;;;5018330;28;19928;-71
2022/01/12 01:05:20;;;;;;;23.70;10.73;;;-2.60;99.90;;;;;;5013317;28;20018;-71
2022/01/12 01:07:46;;;;;;;28.95;11.93;;;-2.60;99.90;;;;;;5016580;28;20036;-71
2022/01/12 01:10:17;;;;;;;28.03;11.63;;;-2.70;99.90;;;;;;5017463;28;20041;-71
2022/01/12 01:12:46;;;;;;;25.40;11.23;;;-2.60;99.90;;;;;;5017379;28;20029;-71
2022/01/12 01:15:15;;;;;;;27.75;11.48;;;-2.70;99.90;;;;;;5015502;28;20111;-71
2022/01/12 01:25:45;;;;;;;25.83;11.68;;;-2.70;99.90;;;;;;5016611;28;20355;-71
2022/01/12 01:28:13;;;;;;;31.52;12.90;;;-2.70;99.90;;;;;;5015896;28;20029;-71
2022/01/12 01:30:41;;;;;;;27.10;13.38;;;-2.80;99.90;;;;;;5011343;28;20138;-71
2022/01/12 01:33:11;;;;;;;28.30;12.15;;;-2.80;99.90;;;;;;5015116;28;20029;-71
2022/01/12 01:35:43;;;;;;;26.15;11.43;;;-2.80;99.90;;;;;;5012428;28;20093;-71
2022/01/12 01:38:08;;;;;;;29.35;11.85;;;-2.80;99.90;;;;;;5014533;28;20036;-71
2022/01/12 01:40:41;;;;;;;28.40;12.13;;;-2.80;99.90;;;;;;5012161;28;20022;-71
2022/01/12 01:43:18;;;;;;;26.73;11.80;;;-2.90;99.90;;;;;;5013343;28;20125;-70
2022/01/12 01:53:59;;;;;;;28.95;11.85;;;-2.90;99.90;;;;;;5015402;28;20406;-71
2022/01/12 01:56:25;;;;;;;30.40;11.70;;;-2.90;99.90;;;;;;5011489;28;20026;-71
2022/01/12 01:58:51;;;;;;;31.27;12.43;;;-3.00;99.90;;;;;;5015610;28;20021;-71
2022/01/12 02:01:17;;;;;;;30.60;12.27;;;-3.00;99.90;;;;;;5013272;28;20045;-71
2022/01/12 02:03:44;;;;;;;30.17;12.93;;;-3.00;99.90;;;;;;5011768;28;20041;-70
2022/01/12 02:06:11;;;;;;;30.92;13.07;;;-3.10;99.90;;;;;;5013350;28;20037;-70
2022/01/12 02:08:36;;;;;;;34.67;12.50;;;-3.10;99.90;;;;;;5010094;28;20104;-71
2022/01/12 02:11:03;;;;;;;28.77;10.70;;;-3.10;99.90;;;;;;5016781;28;20163;-71
2022/01/12 02:13:29;;;;;;;30.10;11.35;;;-3.10;99.90;;;;;;5011396;28;20029;-71
2022/01/12 02:15:56;;;;;;;;;;;-3.10;99.90;;;;;;5015738;28;20033;-71
2022/01/12 02:40:23;;;;;;;26.48;11.05;;;-3.20;99.90;;;;;;5011153;28;20389;-72
2022/01/12 02:42:59;;;;;;;27.88;10.68;;;-3.20;99.90;;;;;;5012314;28;20028;-71
2022/01/12 02:53:41;;;;;;;23.08;10.27;;;-3.20;99.90;;;;;;5011006;28;20378;-71
2022/01/12 02:56:27;;;;;;;23.60;10.20;;;-3.20;99.90;;;;;;5013493;28;20044;-71
2022/01/12 02:58:53;;;;;;;23.33;10.57;;;-3.20;99.90;;;;;;5013870;28;20017;-71
2022/01/12 03:03:57;;;;;;;26.85;10.93;;;-3.20;99.90;;;;;;5014978;28;20061;-70
2022/01/12 03:06:25;;;;;;;28.02;11.95;;;-3.20;99.90;;;;;;5008977;28;20200;-71
2022/01/12 03:08:51;;;;;;;31.27;11.63;;;-3.20;99.90;;;;;;5013665;28;20026;-70
2022/01/12 03:11:20;;;;;;;27.13;11.75;;;-3.30;99.90;;;;;;5014560;28;20474;-71
2022/01/12 03:13:47;;;;;;;24.80;11.10;;;-3.30;99.90;;;;;;5013523;28;20026;-71
2022/01/12 03:16:18;;;;;;;25.60;11.20;;;-3.30;99.90;;;;;;5014179;28;20433;-71
2022/01/12 03:18:49;;;;;;;28.85;13.65;;;-3.30;99.90;;;;;;5011995;28;20053;-71
2022/01/12 03:21:17;;;;;;;30.00;11.93;;;-3.30;99.90;;;;;;5013928;28;20182;-71
2022/01/12 03:23:43;;;;;;;25.20;10.95;;;-3.30;99.90;;;;;;5009493;28;20040;-71
2022/01/12 03:26:09;;;;;;;35.90;13.93;;;-3.30;99.90;;;;;;5017258;28;20112;-71
2022/01/12 03:28:37;;;;;;;30.30;13.07;;;-3.40;99.90;;;;;;5012012;28;20121;-71
2022/01/12 03:31:13;;;;;;;31.38;12.77;;;-3.50;99.90;;;;;;5013253;28;20505;-71
2022/01/12 03:39:01;;;;;;;32.35;12.80;;;-3.60;99.90;;;;;;5014065;28;20064;-71
2022/01/12 03:41:31;;;;;;;31.38;13.45;;;-3.60;99.90;;;;;;5010015;28;20159;-72
2022/01/12 03:43:59;;;;;;;30.55;12.20;;;-3.60;99.90;;;;;;5013552;28;20856;-70
2022/01/12 03:46:32;;;;;;;33.72;13.13;;;-3.70;99.90;;;;;;5009694;28;20112;-71
2022/01/12 03:48:59;;;;;;;38.42;13.85;;;-3.70;99.90;;;;;;5014589;28;20021;-71
2022/01/12 03:51:25;;;;;;;31.30;13.48;;;-3.70;99.90;;;;;;5011225;28;20040;-70
2022/01/12 03:53:51;;;;;;;32.87;12.90;;;-3.70;99.90;;;;;;5014948;28;20029;-71
2022/01/12 03:56:18;;;;;;;34.30;13.63;;;-3.80;99.90;;;;;;5017269;28;20009;-70
2022/01/12 03:58:44;;;;;;;;;;;-3.80;99.90;;;;;;5018298;28;20018;-76
2022/01/12 04:01:11;;;;;;;37.50;13.07;;;-3.80;99.90;;;;;;5013895;28;20568;-70
2022/01/12 04:03:41;;;;;;;32.45;12.38;;;-3.90;99.90;;;;;;5017364;28;20036;-70
2022/01/12 04:08:52;;;;;;;32.08;13.98;;;-3.90;99.90;;;;;;5017959;28;20039;-70
2022/01/12 04:11:19;;;;;;;34.83;14.05;;;-3.90;99.90;;;;;;5017885;28;20661;-71
2022/01/12 04:13:48;;;;;;;33.10;12.88;;;-3.90;99.90;;;;;;5014051;28;20037;-70
2022/01/12 04:16:14;;;;;;;37.78;13.20;;;-3.90;99.90;;;;;;5017901;28;20124;-70
2022/01/12 04:18:40;;;;;;;36.15;14.95;;;-4.00;99.90;;;;;;5013428;28;20454;-71
2022/01/12 04:21:10;;;;;;;31.95;12.63;;;-4.00;99.90;;;;;;5018364;28;20060;-70
2022/01/12 04:23:37;;;;;;;34.20;12.95;;;-4.00;99.90;;;;;;5012587;28;20100;-70
2022/01/12 04:26:10;;;;;;;36.92;14.05;;;-4.00;99.90;;;;;;5016848;28;20051;-70
2022/01/12 04:28:45;;;;;;;29.95;13.48;;;-4.00;99.90;;;;;;5011518;28;20021;-71
2022/01/12 04:31:12;;;;;;;34.58;14.30;;;-4.10;99.90;;;;;;5017343;28;20029;-71
2022/01/12 04:33:40;;;;;;;34.00;13.60;;;-4.10;99.90;;;;;;5013678;28;20116;-71
2022/01/12 04:36:07;;;;;;;31.25;12.82;;;-4.20;99.90;;;;;;5018253;28;20033;-70
2022/01/12 04:38:35;;;;;;;35.28;13.73;;;-4.20;99.90;;;;;;5012050;28;20537;-71
2022/01/12 04:41:03;;;;;;;36.17;14.82;;;-4.20;99.90;;;;;;5019947;28;20116;-71
2022/01/12 04:43:29;;;;;;;39.78;14.77;;;-4.30;99.90;;;;;;5022342;28;20037;-71
2022/01/12 04:48:37;;;;;;;34.30;14.07;;;-4.30;99.90;;;;;;5011157;28;20029;-71
2022/01/12 04:51:05;;;;;;;35.05;13.52;;;-4.30;99.90;;;;;;5016321;28;20021;-71
2022/01/12 04:53:31;;;;;;;37.03;14.15;;;-4.30;99.90;;;;;;5011864;28;20033;-71
2022/01/12 04:55:58;;;;;;;32.80;13.87;;;-4.30;99.90;;;;;;5016586;28;20017;-71
2022/01/12 04:58:24;;;;;;;38.45;14.65;;;-4.30;99.90;;;;;;5014653;28;20501;-71
2022/01/12 05:00:52;;;;;;;31.52;14.63;;;-4.30;99.90;;;;;;5016638;28;20383;-70
2022/01/12 05:09:03;;;;;;;31.58;13.07;;;-4.40;99.90;;;;;;5014494;28;20048;-71
2022/01/12 05:14:12;;;;;;;39.03;13.27;;;-4.50;99.90;;;;;;5017021;28;20142;-70
2022/01/12 05:16:39;;;;;;;33.90;13.33;;;-4.50;99.90;;;;;;5012251;28;20493;-70
2022/01/12 05:19:06;;;;;;;30.10;13.68;;;-4.50;99.90;;;;;;5017691;28;20091;-70
2022/01/12 05:21:32;;;;;;;38.35;14.80;;;-4.60;99.90;;;;;;5010356;28;20054;-71
2022/01/12 05:24:01;;;;;;;36.00;13.87;;;-4.60;99.90;;;;;;5016606;28;20041;-70
2022/01/12 05:26:27;;;;;;;37.47;15.07;;;-4.60;99.90;;;;;;5012396;28;20037;-70
2022/01/12 05:28:53;;;;;;;34.75;13.98;;;-4.50;99.90;;;;;;5017233;28;20149;-70
2022/01/12 05:31:19;;;;;;;33.80;15.07;;;-4.50;99.90;;;;;;5017104;28;20030;-71
2022/01/12 05:33:48;;;;;;;34.40;13.27;;;-4.50;99.90;;;;;;5012478;28;20080;-70
2022/01/12 05:36:16;;;;;;;36.25;13.90;;;-4.50;99.90;;;;;;5016700;28;20017;-71
2022/01/12 05:38:42;;;;;;;31.90;12.45;;;-4.50;99.90;;;;;;5010946;28;20219;-70
2022/01/12 05:41:08;;;;;;;37.47;14.07;;;-4.50;99.90;;;;;;5015867;28;20620;-70
2022/01/12 05:43:37;;;;;;;30.35;13.18;;;-4.40;99.90;;;;;;5013124;28;20021;-71
2022/01/12 05:46:13;;;;;;;33.92;13.13;;;-4.40;99.90;;;;;;5014256;28;20026;-71
2022/01/12 05:51:31;;;;;;;36.03;13.75;;;-4.40;99.90;;;;;;5013449;28;20036;-71
2022/01/12 05:53:57;;;;;;;26.65;11.85;;;-4.40;99.90;;;;;;5014689;28;20115;-70
2022/01/12 05:56:23;;;;;;;39.05;13.90;;;-4.30;99.90;;;;;;5015217;28;20154;-71
2022/01/12 05:58:50;;;;;;;40.10;14.43;;;-4.30;99.90;;;;;;5013572;28;20649;-71
2022/01/12 06:01:16;;;;;;;35.72;13.23;;;-4.30;99.90;;;;;;5013044;28;20038;-70
2022/01/12 06:03:42;;;;;;;;;;;-4.20;99.90;;;;;;5011371;28;20656;-71
2022/01/12 06:06:08;;;;;;;36.67;14.25;;;-4.20;99.90;;;;;;5014756;28;19916;-70
2022/01/12 06:08:33;;;;;;;35.47;12.97;;;-4.20;99.90;;;;;;5012384;28;20033;-71
2022/01/12 06:11:02;;;;;;;29.53;11.30;;;-4.20;99.90;;;;;;5017555;28;20212;-71
2022/01/12 06:13:29;;;;;;;27.38;12.88;;;-4.10;99.90;;;;;;5012036;28;20022;-72
2022/01/12 06:15:54;;;;;;;32.08;13.35;;;-4.10;99.90;;;;;;5015328;28;20039;-70
2022/01/12 06:18:21;;;;;;;31.43;13.20;;;-4.10;99.90;;;;;;5015694;28;20029;-70
2022/01/12 06:20:47;;;;;;;32.33;13.50;;;-4.00;99.90;;;;;;5012688;28;20450;-71
2022/01/12 06:23:14;;;;;;;29.10;13.20;;;-3.90;99.90;;;;;;5014601;28;20037;-71
2022/01/12 06:25:39;;;;;;;;;;;-3.90;99.90;;;;;;5011720;28;20071;-71
2022/01/12 06:28:22;;;;;;;34.92;12.57;;;-3.80;99.90;;;;;;5015334;28;19905;-70
2022/01/12 06:33:47;;;;;;;29.40;12.43;;;-3.70;99.90;;;;;;5010069;28;20383;-70
2022/01/12 06:36:15;;;;;;;31.48;13.75;;;-3.70;99.90;;;;;;5014166;28;20057;-71
2022/01/12 06:38:41;;;;;;;35.13;13.63;;;-3.70;99.90;;;;;;5010760;28;20048;-71
2022/01/12 06:41:07;;;;;;;27.92;13.30;;;-3.70;99.90;;;;;;5015867;28;20124;-70
2022/01/12 06:43:34;;;;;;;26.97;12.43;;;-3.60;99.90;;;;;;5012510;28;20489;-71
2022/01/12 06:46:00;;;;;;;30.20;12.27;;;-3.60;99.90;;;;;;5013708;28;20144;-71
2022/01/12 06:48:26;;;;;;;31.63;12.20;;;-3.60;99.90;;;;;;5010778;28;20132;-71
2022/01/12 06:50:51;;;;;;;31.30;13.83;;;-3.60;99.90;;;;;;5015339;28;20021;-71
2022/01/12 06:53:17;;;;;;;35.47;13.23;;;-3.60;99.90;;;;;;5012898;28;20544;-70
2022/01/12 06:55:43;;;;;;;26.67;12.27;;;-3.60;99.90;;;;;;5011658;28;20028;-71
2022/01/12 06:58:08;;;;;;;28.63;11.97;;;-3.60;99.90;;;;;;5015031;28;20021;-71
2022/01/12 07:00:34;;;;;;;28.53;12.10;;;-3.50;99.90;;;;;;5010964;28;20056;-70
2022/01/12 07:03:01;;;;;;;25.60;12.00;;;-3.40;99.90;;;;;;5011954;28;20037;-70
2022/01/12 07:05:27;;;;;;;;;;;-3.30;99.90;;;;;;5009671;28;20025;-71
2022/01/12 07:07:52;;;;;;;26.85;12.55;;;-3.30;99.90;;;;;;5013350;28;20416;-70
2022/01/12 07:10:18;;;;;;;25.70;11.33;;;-3.30;99.90;;;;;;5013707;28;20049;-71
2022/01/12 07:12:43;;;;;;;27.40;12.77;;;-3.30;99.90;;;;;;5009125;28;20029;-71
2022/01/12 07:15:09;;;;;;;33.67;12.00;;;-3.30;99.90;;;;;;5013289;28;20025;-71
2022/01/12 07:17:36;;;;;;;30.60;12.97;;;-3.30;99.90;;;;;;5008446;28;20026;-70
2022/01/12 07:20:03;;;;;;;29.20;12.23;;;-3.30;99.90;;;;;;5013616;28;20443;-71
2022/01/12 07:22:29;;;;;;;27.92;12.75;;;-3.20;99.90;;;;;;5010849;28;20530;-70
2022/01/12 07:24:55;;;;;;;23.60;10.77;;;-3.20;99.90;;;;;;5014761;28;20744;-71
2022/01/12 07:27:23;;;;;;;26.47;11.87;;;-3.10;99.90;;;;;;5013506;28;20090;-70
2022/01/12 07:29:49;;;;;;;27.42;11.05;;;-3.10;99.90;;;;;;5012766;28;20021;-71
2022/01/12 07:32:14;;;;;;;28.43;11.60;;;-3.00;99.90;;;;;;5018940;28;20032;-70
2022/01/12 07:34:43;;;;;;;29.47;12.50;;;-3.00;99.90;;;;;;5015609;28;20543;-71
2022/01/12 07:37:10;;;;;;;25.70;11.45;;;-2.90;99.90;;;;;;5013643;28;20471;-71
2022/01/12 07:39:35;;;;;;;26.08;11.85;;;-3.00;99.90;;;;;;5019717;28;20442;-70
2022/01/12 07:42:03;;;;;;;31.47;12.30;;;-2.90;99.90;;;;;;5012938;28;20071;-72
2022/01/12 07:44:30;;;;;;;24.05;10.75;;;-2.80;99.90;;;;;;5016940;28;20055;-71
2022/01/12 07:46:56;;;;;;;30.48;12.30;;;-2.70;99.90;;;;;;5016280;28;20159;-71
2022/01/12 07:49:22;;;;;;;28.00;12.23;;;-2.60;99.90;;;;;;5016534;28;20104;-71
2022/01/12 07:51:49;;;;;;;29.80;12.30;;;-2.60;99.90;;;;;;5019443;28;20108;-71
2022/01/12 07:54:16;;;;;;;24.55;10.23;;;-2.50;99.90;;;;;;5014021;28;20041;-71
2022/01/12 07:56:43;;;;;;;27.88;12.07;;;-2.60;99.90;;;;;;5017873;28;20741;-70
2022/01/12 07:59:10;;;;;;;27.50;10.82;;;-2.50;99.90;;;;;;5012840;28;20100;-71
2022/01/12 08:01:35;;;;;;;24.05;11.85;;;-2.50;99.90;;;;;;5014182;28;20029;-71
2022/01/12 08:04:02;;;;;;;24.43;10.90;;;-2.50;99.90;;;;;;5018669;28;20550;-71
2022/01/12 08:06:29;;;;;;;;;;;-2.40;99.90;;;;;;5014393;28;20565;-71
2022/01/12 08:08:56;;;;;;;24.45;10.95;;;-2.40;99.90;;;;;;5016397;28;19913;-71
2022/01/12 08:11:22;;;;;;;;;;;-2.40;99.90;;;;;;5017429;28;20379;-71
2022/01/12 08:13:50;;;;;;;26.65;11.63;;;-2.40;99.90;;;;;;5013447;28;19963;-71
2022/01/12 08:16:17;;;;;;;25.60;11.38;;;-2.30;99.90;;;;;;5016746;28;20028;-70
2022/01/12 08:18:43;;;;;;;22.17;10.90;;;-2.30;99.90;;;;;;5013661;28;20126;-71
2022/01/12 08:21:08;;;;;;;26.07;11.37;;;-2.30;99.90;;;;;;5017754;28;20466;-71
2022/01/12 08:23:34;;;;;;;28.07;11.40;;;-2.20;99.90;;;;;;5013732;28;20030;-71
2022/01/12 08:26:01;;;;;;;30.38;12.07;;;-2.10;99.90;;;;;;5017109;28;20709;-71
2022/01/12 08:28:27;;;;;;;25.05;11.35;;;-2.10;99.90;;;;;;5015689;28;20053;-71
2022/01/12 08:30:53;;;;;;;24.93;11.10;;;-2.10;99.90;;;;;;5014741;28;20052;-70
2022/01/12 08:33:21;;;;;;;23.00;10.10;;;-2.10;99.90;;;;;;5017330;28;20121;-71
2022/01/12 08:35:47;;;;;;;26.60;10.40;;;-2.10;99.90;;;;;;5011888;28;20726;-71
2022/01/12 08:38:13;;;;;;;25.58;11.57;;;-2.00;99.90;;;;;;5016634;28;20115;-71
2022/01/12 08:40:42;;;;;;;24.40;10.73;;;-1.80;99.90;;;;;;5015044;28;20053;-71
2022/01/12 08:43:08;;;;;;;22.00;9.80;;;-1.70;99.90;;;;;;5016464;28;20386;-71
2022/01/12 08:45:34;;;;;;;;;;;-1.60;99.90;;;;;;5013657;28;20192;-71
2022/01/12 08:48:01;;;;;;;21.83;9.52;;;-1.50;99.90;;;;;;5017757;28;20556;-70
2022/01/12 08:50:26;;;;;;;23.30;10.30;;;-1.40;99.90;;;;;;5017064;28;20497;-71
2022/01/12 08:52:52;;;;;;;28.03;10.77;;;-1.30;99.90;;;;;;5014545;28;20057;-70
2022/01/12 08:55:21;;;;;;;24.97;11.57;;;-1.40;99.90;;;;;;5017310;28;20052;-71
2022/01/12 08:57:50;;;;;;;21.17;10.20;;;-1.60;99.90;;;;;;5013006;28;20230;-71
2022/01/12 09:00:16;;;;;;;28.10;11.38;;;-1.60;99.90;;;;;;5016754;28;20017;-71
2022/01/12 09:02:42;;;;;;;22.33;10.25;;;-1.60;99.90;;;;;;5012446;28;20034;-70
2022/01/12 09:05:11;;;;;;;27.90;11.97;;;-1.60;99.90;;;;;;5017469;28;20532;-71
2022/01/12 09:07:38;;;;;;;24.73;10.93;;;-1.60;99.90;;;;;;5011591;28;20476;-71
2022/01/12 09:10:05;;;;;;;28.15;12.25;;;-1.60;99.90;;;;;;5017438;28;20040;-71
2022/01/12 09:12:31;;;;;;;25.13;11.55;;;-1.70;99.90;;;;;;5012661;28;20108;-71
2022/01/12 09:14:57;;;;;;;26.97;10.70;;;-1.80;99.90;;;;;;5017583;28;20092;-71
2022/01/12 09:17:23;;;;;;;25.20;11.07;;;-1.70;99.90;;;;;;5015783;28;20053;-71
2022/01/12 09:19:50;;;;;;;27.27;12.00;;;-1.70;99.90;;;;;;5011642;28;20018;-71
2022/01/12 09:22:16;;;;;;;24.50;11.27;;;-1.70;99.90;;;;;;5015347;28;20025;-70
2022/01/12 09:24:44;;;;;;;26.30;11.20;;;-1.80;99.90;;;;;;5012374;28;20036;-71
2022/01/12 09:27:10;;;;;;;25.67;10.98;;;-1.80;99.90;;;;;;5017090;28;20064;-71
2022/01/12 09:29:36;;;;;;;24.45;10.80;;;-1.80;99.90;;;;;;5012273;28;20021;-72
2022/01/12 09:32:03;;;;;;;25.58;11.30;;;-1.80;99.90;;;;;;5018007;28;20029;-71
2022/01/12 09:34:29;;;;;;;30.13;11.93;;;-1.80;99.90;;;;;;5016626;28;20053;-71
2022/01/12 09:36:56;;;;;;;28.58;11.98;;;-1.90;99.90;;;;;;5010817;28;20454;-71
2022/01/12 09:39:23;;;;;;;28.05;12.05;;;-1.80;99.90;;;;;;5014033;28;20045;-71
2022/01/12 09:41:48;;;;;;;26.75;12.07;;;-1.70;99.90;;;;;;5011352;28;20192;-71
2022/01/12 09:44:17;;;;;;;23.30;10.93;;;-1.70;99.90;;;;;;5013739;28;20822;-71
2022/01/12 09:46:42;;;;;;;22.77;11.20;;;-1.70;99.90;;;;;;5009390;28;20025;-71
2022/01/12 09:49:10;;;;;;;27.20;10.87;;;-1.70;99.90;;;;;;5014667;28;20600;-71
2022/01/12 09:51:38;;;;;;;23.40;10.90;;;-1.60;99.90;;;;;;5012129;28;20425;-71
2022/01/12 09:54:05;;;;;;;25.63;11.18;;;-1.60;99.90;;;;;;5015689;28;20454;-71
2022/01/12 09:56:31;;;;;;;25.30;11.38;;;-1.60;99.90;;;;;;5012850;28;20405;-71
2022/01/12 09:59:00;;;;;;;28.17;11.77;;;-1.60;99.90;;;;;;5012207;28;20029;-71
2022/01/12 10:01:31;;;;;;;29.70;12.50;;;-1.60;99.90;;;;;;5015390;28;20494;-71
2022/01/12 10:04:15;;;;;;;25.70;11.85;;;-1.60;99.90;;;;;;5013314;28;20032;-71
2022/01/12 10:06:50;;;;;;;24.80;11.27;;;-1.60;99.90;;;;;;5011361;28;20021;-70
2022/01/12 10:09:20;;;;;;;27.13;10.98;;;-1.50;99.90;;;;;;5015640;28;20075;-71
2022/01/12 10:11:50;;;;;;;28.60;11.85;;;-1.50;99.90;;;;;;5010598;28;20021;-71
2022/01/12 10:14:18;;;;;;;26.02;10.95;;;-1.50;99.90;;;;;;5015374;28;20032;-71
2022/01/12 10:16:54;;;;;;;26.50;11.38;;;-1.50;99.90;;;;;;5010696;28;20034;-71
2022/01/12 10:19:28;;;;;;;23.50;10.82;;;-1.50;99.90;;;;;;5015549;28;20018;-71
2022/01/12 10:21:54;;;;;;;31.25;12.23;;;-1.50;99.90;;;;;;5011217;28;20061;-71
2022/01/12 10:24:20;;;;;;;24.48;10.80;;;-1.40;99.90;;;;;;5014526;28;20533;-71
2022/01/12 10:26:47;;;;;;;27.48;11.77;;;-1.50;99.90;;;;;;5010869;28;20025;-71
2022/01/12 10:29:18;;;;;;;28.13;11.77;;;-1.40;99.90;;;;;;5015587;28;20108;-71
2022/01/12 10:31:45;;;;;;;29.88;11.07;;;-1.40;99.90;;;;;;5011755;28;20087;-71
2022/01/12 10:34:11;;;;;;;26.48;10.57;;;-1.30;99.90;;;;;;5014338;28;20055;-71
2022/01/12 10:36:39;;;;;;;24.23;10.73;;;-1.20;99.90;;;;;;5010290;28;20843;-71
2022/01/12 10:39:11;;;;;;;26.88;11.63;;;-1.10;99.90;;;;;;5013929;28;20021;-71
2022/01/12 10:41:50;;;;;;;30.27;12.05;;;-1.10;99.90;;;;;;5010529;28;20089;-71
2022/01/12 10:44:26;;;;;;;26.85;11.45;;;-1.10;99.90;;;;;;5013752;28;20033;-71
2022/01/12 10:47:23;;;;;;;23.88;10.50;;;-1.00;99.90;;;;;;5009754;28;20030;-71
2022/01/12 10:49:58;;;;;;;23.50;9.87;;;-1.00;99.90;;;;;;5010573;28;20022;-71
2022/01/12 10:52:39;;;;;;;22.90;10.38;;;-1.00;99.90;;;;;;5014044;28;20065;-71
2022/01/12 10:55:07;;;;;;;27.65;10.90;;;-0.80;99.90;;;;;;5014039;28;20032;-71
2022/01/12 10:57:39;;;;;;;22.75;10.43;;;-0.70;99.90;;;;;;5010177;28;20014;-71
2022/01/12 11:00:21;;;;;;;26.52;11.10;;;-0.70;99.70;;;;;;5013655;28;20009;-71
2022/01/12 11:02:57;;;;;;;24.58;10.35;;;-0.70;99.80;;;;;;5010635;28;20029;-71
2022/01/12 11:05:26;;;;;;;20.85;10.15;;;-0.60;99.70;;;;;;5016917;28;20500;-71
2022/01/12 11:07:52;;;;;;;22.02;9.80;;;-0.60;99.50;;;;;;5012879;28;20589;-71
2022/01/12 11:10:19;;;;;;;21.63;10.10;;;-0.50;99.30;;;;;;5016451;28;20025;-71
2022/01/12 11:12:47;;;;;;;22.65;9.43;;;-0.50;98.60;;;;;;5014399;28;20498;-71
2022/01/12 11:15:15;;;;;;;23.45;10.60;;;-0.60;98.70;;;;;;5019348;28;20040;-71
2022/01/12 11:17:43;;;;;;;21.15;9.70;;;-0.60;99.10;;;;;;5013393;28;20026;-71
2022/01/12 11:20:30;;;;;;;23.98;10.95;;;-0.50;99.30;;;;;;5016842;28;20037;-71
2022/01/12 11:23:02;;;;;;;22.90;9.75;;;-0.30;98.40;;;;;;5015006;28;20754;-71
2022/01/12 11:25:28;;;;;;;24.75;11.23;;;-0.20;97.60;;;;;;5017989;28;20417;-71
2022/01/12 11:28:14;;;;;;;25.50;9.93;;;-0.30;97.60;;;;;;5014734;28;20028;-71
2022/01/12 11:30:53;;;;;;;20.42;10.15;;;-0.30;97.80;;;;;;5014317;28;20056;-71
2022/01/12 11:33:40;;;;;;;17.88;9.35;;;-0.40;98.50;;;;;;5017035;28;20144;-71
2022/01/12 11:36:14;;;;;;;36.72;10.50;;;-0.40;98.30;;;;;;5016514;28;20029;-72
2022/01/12 11:38:40;;;;;;;19.52;9.80;;;-0.50;98.60;;;;;;5014322;28;20037;-71
2022/01/12 11:41:24;;;;;;;20.23;8.98;;;-0.40;98.30;;;;;;5018281;28;20563;-71
2022/01/12 11:43:58;;;;;;;20.30;10.10;;;-0.30;98.00;;;;;;5013228;28;20036;-71
2022/01/12 11:46:26;;;;;;;21.92;10.30;;;-0.30;97.90;;;;;;5017120;28;20556;-71
2022/01/12 11:48:54;;;;;;;25.95;10.85;;;-0.20;97.80;;;;;;5013884;28;20637;-71
2022/01/12 11:51:36;;;;;;;25.60;9.88;;;0.00;97.70;;;;;;5017622;28;20799;-71
2022/01/12 11:54:10;;;;;;;19.33;10.05;;;0.20;97.10;;;;;;5018645;28;20394;-71
2022/01/12 11:56:38;;;;;;;22.55;10.43;;;0.40;96.20;;;;;;5012290;28;20025;-70
2022/01/12 11:59:13;;;;;;;23.52;11.27;;;0.60;95.80;;;;;;5016988;28;20036;-71
2022/01/12 12:01:50;;;;;;;22.88;9.73;;;0.80;96.00;;;;;;5013161;28;20032;-70
2022/01/12 12:04:30;;;;;;;24.98;9.82;;;1.20;95.00;;;;;;5017328;28;20091;-70
2022/01/12 12:07:10;;;;;;;18.77;9.05;;;1.50;94.00;;;;;;5011581;28;20040;-70
2022/01/12 12:09:36;;;;;;;24.75;10.60;;;1.80;92.80;;;;;;5013123;28;20088;-70
2022/01/12 12:12:32;;;;;;;19.55;9.90;;;2.10;92.40;;;;;;5016954;28;20056;-70
2022/01/12 12:15:01;;;;;;;20.65;10.07;;;2.20;91.60;;;;;;5012887;28;20021;-70
2022/01/12 12:17:30;;;;;;;19.70;10.50;;;2.40;91.20;;;;;;5017695;28;20028;-70
2022/01/12 12:19:56;;;;;;;23.17;9.82;;;2.40;90.10;;;;;;5012651;28;20032;-70
2022/01/12 12:22:25;;;;;;;18.67;9.07;;;2.10;91.00;;;;;;5016358;28;20463;-70
2022/01/12 12:25:25;;;;;;;21.50;10.48;;;1.90;91.50;;;;;;5012778;28;20033;-69
2022/01/12 12:27:54;;;;;;;20.13;9.57;;;1.60;92.20;;;;;;5011871;28;20033;-70
2022/01/12 12:30:25;;;;;;;22.25;10.32;;;1.50;92.40;;;;;;5016818;28;20390;-70
2022/01/12 12:32:53;;;;;;;22.85;11.10;;;1.30;93.10;;;;;;5011758;28;20021;-70
2022/01/12 12:35:28;;;;;;;28.10;10.55;;;1.30;93.40;;;;;;5001413;28;20033;-70
2022/01/12 12:38:02;;;;;;;28.25;9.95;;;1.30;93.20;;;;;;5011696;28;20091;-70
2022/01/12 12:40:31;;;;;;;20.45;10.05;;;1.20;93.70;;;;;;5016821;28;20021;-70
2022/01/12 12:43:19;;;;;;;22.15;9.48;;;1.30;93.60;;;;;;5012941;28;20682;-70
2022/01/12 12:45:53;;;;;;;27.63;10.68;;;1.20;93.60;;;;;;5012908;28;20499;-70
2022/01/12 12:48:22;;;;;;;24.27;10.50;;;1.20;93.40;;;;;;5013489;28;20032;-70
2022/01/12 12:50:56;;;;;;;22.25;10.15;;;1.20;93.70;;;;;;5013858;28;20103;-69
2022/01/12 12:53:27;;;;;;;23.95;10.45;;;1.10;93.70;;;;;;5014470;28;20620;-69
2022/01/12 12:55:53;;;;;;;23.42;9.88;;;1.30;96.20;;;;;;5011590;28;20100;-70
2022/01/12 12:58:18;;;;;;;22.70;9.57;;;1.50;95.70;;;;;;5014306;28;20067;-70
2022/01/12 13:00:45;;;;;;;24.70;9.70;;;1.70;93.90;;;;;;5011682;28;20860;-70
2022/01/12 13:03:11;;;;;;;23.20;10.73;;;1.80;92.80;;;;;;5015594;28;20029;-70
2022/01/12 13:05:43;;;;;;;22.57;10.37;;;1.60;92.80;;;;;;5012055;28;20030;-70
2022/01/12 13:08:10;;;;;;;21.08;9.65;;;1.50;93.30;;;;;;5015926;28;20029;-69
2022/01/12 13:10:36;;;;;;;22.83;10.48;;;1.30;93.50;;;;;;5013697;28;20735;-70
2022/01/12 13:13:04;;;;;;;21.58;9.60;;;1.20;94.00;;;;;;5017325;28;20555;-70
2022/01/12 13:15:39;;;;;;;22.17;10.73;;;1.10;94.10;;;;;;5015123;28;20025;-70
2022/01/12 13:18:11;;;;;;;21.38;10.35;;;1.00;94.30;;;;;;5013222;28;20071;-70
2022/01/12 13:23:30;;;;;;;24.80;10.70;;;0.70;95.30;;;;;;5015364;28;20473;-70
2022/01/12 13:25:58;;;;;;;21.88;10.82;;;0.60;95.60;;;;;;5009863;28;20760;-70
2022/01/12 13:28:24;;;;;;;22.20;10.45;;;0.50;95.90;;;;;;5014705;28;21379;-70
2022/01/12 13:30:57;;;;;;;26.45;11.43;;;0.50;96.20;;;;;;5010819;28;20387;-70
2022/01/12 13:33:32;;;;;;;21.40;9.38;;;0.40;96.30;;;;;;5015644;28;20022;-69
2022/01/12 13:36:14;;;;;;;24.02;10.88;;;0.30;96.40;;;;;;5011686;28;20025;-69
2022/01/12 13:38:40;;;;;;;27.80;10.27;;;0.20;96.90;;;;;;5010077;28;20100;-69
2022/01/12 13:41:27;;;;;;;26.25;10.68;;;0.10;97.10;;;;;;5014981;28;20071;-69
2022/01/12 13:43:57;;;;;;;24.20;11.25;;;0.10;97.50;;;;;;5008656;28;20033;-70
2022/01/12 13:46:52;;;;;;;30.38;11.05;;;0.00;97.50;;;;;;5013803;28;20022;-70
2022/01/12 13:55:15;;;;;;;23.52;10.18;;;0.20;97.90;;;;;;4983387;28;20030;-68
2022/01/12 14:01:11;;;;;;;21.13;9.70;;;0.50;96.80;;;;;;4982474;28;20057;-67
2022/01/12 14:07:02;;;;;;;24.73;10.68;;;0.60;96.40;;;;;;4981842;28;20029;-70
2022/01/12 14:12:15;;;;;;;21.90;10.35;;;0.70;96.30;;;;;;4962629;28;20029;-70
2022/01/12 14:14:57;;;;;;;25.05;10.10;;;0.70;96.30;;;;;;4958800;28;20037;-70
2022/01/12 14:17:37;;;;;;;21.67;10.23;;;0.70;96.20;;;;;;4957572;28;20160;-70
2022/01/12 14:20:28;;;;;;;21.35;10.65;;;0.70;96.20;;;;;;4962711;28;20019;-70
2022/01/12 14:22:55;;;;;;;21.42;10.75;;;0.70;96.30;;;;;;4952830;28;20041;-69